createdAt,value
2022-11-28T00:01:36.129Z,29.63
2022-11-28T00:04:05.332Z,24.00
2022-11-28T00:06:35.427Z,25.00
2022-11-28T00:09:02.802Z,22.15
2022-11-28T00:11:30.065Z,24.27
2022-11-28T00:13:57.229Z,22.55
2022-11-28T00:16:25.147Z,21.60
2022-11-28T00:18:54.848Z,24.27
2022-11-28T00:21:23.426Z,25.75
2022-11-28T00:23:52.146Z,21.85
2022-11-28T00:26:34.941Z,23.02
2022-11-28T00:29:03.279Z,25.88
2022-11-28T00:31:42.060Z,23.27
2022-11-28T00:34:15.145Z,21.85
2022-11-28T00:36:47.600Z,22.25
2022-11-28T00:39:16.828Z,21.35
2022-11-28T00:41:45.379Z,21.52
2022-11-28T00:44:12.898Z,21.52
2022-11-28T00:46:40.698Z,25.00
2022-11-28T00:49:08.378Z,22.83
2022-11-28T00:51:36.001Z,25.65
2022-11-28T00:54:05.996Z,23.60
2022-11-28T00:56:38.465Z,20.70
2022-11-28T00:59:06.164Z,25.55
2022-11-28T01:01:40.227Z,22.15
2022-11-28T01:04:12.092Z,19.17
2022-11-28T01:06:43.740Z,25.63
2022-11-28T01:09:18.297Z,22.80
2022-11-28T01:11:48.953Z,22.23
2022-11-28T01:14:18.501Z,24.00
2022-11-28T01:16:45.760Z,20.15
2022-11-28T01:19:13.928Z,19.27
2022-11-28T01:21:41.764Z,21.88
2022-11-28T01:24:09.698Z,21.38
2022-11-28T01:26:40.146Z,19.00
2022-11-28T01:29:08.351Z,21.38
2022-11-28T01:31:36.022Z,19.05
2022-11-28T01:34:03.251Z,19.77
2022-11-28T01:36:30.583Z,17.75
2022-11-28T01:38:58.103Z,22.48
2022-11-28T01:41:27.909Z,21.17
2022-11-28T01:44:03.652Z,19.85
2022-11-28T01:46:32.518Z,18.25
2022-11-28T01:49:09.312Z,18.80
2022-11-28T01:51:38.659Z,18.00
2022-11-28T01:54:06.580Z,19.48
2022-11-28T01:56:55.043Z,18.00
2022-11-28T01:59:26.505Z,20.33
2022-11-28T02:01:53.967Z,16.52
2022-11-28T02:04:25.687Z,20.52
2022-11-28T02:06:52.825Z,17.05
2022-11-28T02:09:20.026Z,25.48
2022-11-28T02:12:14.718Z,16.15
2022-11-28T02:15:08.534Z,19.05
2022-11-28T02:18:05.132Z,16.60
2022-11-28T02:21:09.426Z,19.38
2022-11-28T02:24:17.006Z,18.70
2022-11-28T02:27:47.289Z,22.05
2022-11-28T02:30:18.669Z,18.30
2022-11-28T02:33:18.134Z,17.80
2022-11-28T02:35:56.242Z,21.35
2022-11-28T02:38:51.873Z,18.50
2022-11-28T02:41:47.660Z,21.17
2022-11-28T02:44:32.131Z,22.90
2022-11-28T02:47:26.398Z,22.45
2022-11-28T02:50:12.674Z,25.20
2022-11-28T02:52:49.374Z,21.15
2022-11-28T02:55:17.404Z,19.30
2022-11-28T02:57:51.727Z,21.67
2022-11-28T03:00:31.865Z,20.05
2022-11-28T03:03:35.837Z,19.55
2022-11-28T03:06:24.154Z,24.38
2022-11-28T03:09:38.462Z,18.98
2022-11-28T03:12:23.624Z,20.70
2022-11-28T03:15:01.683Z,22.42
2022-11-28T03:18:07.570Z,22.20
2022-11-28T03:21:22.120Z,30.00
2022-11-28T03:23:59.900Z,19.25
2022-11-28T03:26:55.126Z,21.15
2022-11-28T03:29:48.062Z,24.33
2022-11-28T03:32:31.766Z,20.00
2022-11-28T03:35:30.498Z,22.65
2022-11-28T03:38:06.562Z,20.63
2022-11-28T03:40:43.056Z,21.52
2022-11-28T03:43:18.976Z,22.67
2022-11-28T03:45:53.711Z,24.73
2022-11-28T03:48:31.444Z,22.17
2022-11-28T03:51:16.151Z,27.45
2022-11-28T03:54:08.297Z,24.77
2022-11-28T03:56:59.416Z,21.98
2022-11-28T03:59:33.958Z,20.55
2022-11-28T04:02:18.003Z,19.73
2022-11-28T04:05:17.180Z,22.13
2022-11-28T04:07:58.564Z,22.23
2022-11-28T04:10:38.028Z,18.33
2022-11-28T04:13:29.190Z,20.63
2022-11-28T04:16:11.117Z,22.67
2022-11-28T04:18:58.458Z,15.15
2022-11-28T04:21:50.467Z,17.60
2022-11-28T04:24:33.583Z,18.63
2022-11-28T04:27:07.105Z,18.60
2022-11-28T04:29:45.050Z,17.25
2022-11-28T04:32:15.197Z,15.75
2022-11-28T04:34:47.535Z,17.40
2022-11-28T04:37:16.726Z,17.27
2022-11-28T04:39:48.419Z,19.02
2022-11-28T04:42:23.295Z,18.02
2022-11-28T04:45:16.095Z,17.73
2022-11-28T04:47:45.190Z,18.13
2022-11-28T04:50:13.565Z,18.75
2022-11-28T04:52:55.394Z,22.63
2022-11-28T04:55:47.268Z,21.90
2022-11-28T04:58:19.968Z,21.33
2022-11-28T05:00:52.755Z,20.58
2022-11-28T05:03:21.009Z,19.17
2022-11-28T05:05:51.722Z,18.98
2022-11-28T05:08:19.585Z,21.17
2022-11-28T05:10:47.662Z,21.55
2022-11-28T05:13:15.072Z,20.27
2022-11-28T05:15:42.209Z,20.58
2022-11-28T05:18:09.527Z,21.73
2022-11-28T05:20:38.307Z,21.48
2022-11-28T05:23:06.451Z,19.92
2022-11-28T05:25:33.645Z,21.80
2022-11-28T05:28:00.822Z,20.77
2022-11-28T05:30:27.966Z,24.50
2022-11-28T05:32:56.010Z,24.20
2022-11-28T05:35:23.429Z,23.23
2022-11-28T05:37:50.652Z,24.05
2022-11-28T05:40:17.824Z,22.98
2022-11-28T05:42:44.973Z,21.65
2022-11-28T05:45:12.142Z,24.52
2022-11-28T05:47:39.337Z,25.05
2022-11-28T05:50:08.029Z,25.25
2022-11-28T05:52:35.196Z,24.13
2022-11-28T05:55:02.319Z,22.58
2022-11-28T05:57:32.186Z,24.95
2022-11-28T05:59:59.394Z,26.65
2022-11-28T06:02:26.596Z,23.38
2022-11-28T06:04:53.852Z,25.45
2022-11-28T06:07:21.050Z,23.05
2022-11-28T06:09:48.268Z,26.40
2022-11-28T06:12:15.385Z,26.30
2022-11-28T06:14:42.537Z,23.98
2022-11-28T06:17:09.664Z,25.73
2022-11-28T06:19:36.897Z,25.33
2022-11-28T06:22:04.137Z,26.08
2022-11-28T06:24:31.343Z,25.42
2022-11-28T06:26:58.473Z,23.73
2022-11-28T06:29:25.574Z,27.33
2022-11-28T06:31:53.478Z,25.17
2022-11-28T06:34:20.708Z,22.13
2022-11-28T06:36:47.952Z,23.77
2022-11-28T06:39:16.769Z,25.10
2022-11-28T06:41:44.485Z,22.98
2022-11-28T06:44:15.422Z,27.10
2022-11-28T06:46:43.755Z,25.23
2022-11-28T06:49:14.088Z,24.85
2022-11-28T06:51:42.616Z,23.95
2022-11-28T06:54:09.794Z,24.25
2022-11-28T06:56:37.283Z,24.80
2022-11-28T06:59:04.416Z,25.38
2022-11-28T07:01:32.530Z,25.42
2022-11-28T07:04:01.212Z,21.13
2022-11-28T07:06:29.358Z,23.52
2022-11-28T07:08:58.448Z,26.60
2022-11-28T07:11:29.594Z,23.60
2022-11-28T07:13:58.767Z,24.50
2022-11-28T07:16:29.825Z,24.52
2022-11-28T07:18:59.031Z,28.70
2022-11-28T07:21:27.910Z,23.85
2022-11-28T07:23:55.340Z,23.55
2022-11-28T07:26:22.910Z,24.00
2022-11-28T07:28:51.217Z,26.17
2022-11-28T07:31:22.711Z,25.42
2022-11-28T07:33:51.397Z,22.63
2022-11-28T07:36:27.463Z,22.77
2022-11-28T07:39:00.436Z,19.15
2022-11-28T07:43:59.822Z,22.42
2022-11-28T07:46:30.998Z,18.20
2022-11-28T07:48:58.567Z,19.40
2022-11-28T07:51:30.703Z,18.52
2022-11-28T07:53:59.124Z,23.63
2022-11-28T07:56:50.211Z,20.60
2022-11-28T07:59:17.766Z,19.23
2022-11-28T08:01:44.965Z,18.40
2022-11-28T08:04:12.245Z,19.42
2022-11-28T08:06:42.172Z,23.10
2022-11-28T08:09:09.451Z,20.13
2022-11-28T08:11:36.778Z,21.52
2022-11-28T08:14:05.403Z,23.00
2022-11-28T08:16:33.542Z,20.02
2022-11-28T08:19:02.052Z,24.00
2022-11-28T08:21:32.871Z,20.30
2022-11-28T08:24:02.345Z,21.92
2022-11-28T08:26:32.059Z,19.88
2022-11-28T08:29:01.294Z,19.15
2022-11-28T08:31:35.895Z,20.80
2022-11-28T08:34:07.424Z,19.92
2022-11-28T08:36:34.714Z,21.05
2022-11-28T08:41:52.978Z,19.38
2022-11-28T08:44:20.094Z,19.20
2022-11-28T08:46:47.301Z,19.08
2022-11-28T08:49:14.574Z,21.45
2022-11-28T08:51:41.727Z,22.58
2022-11-28T08:54:08.976Z,21.67
2022-11-28T08:56:36.232Z,22.40
2022-11-28T08:59:04.001Z,22.67
2022-11-28T09:01:31.287Z,19.83
2022-11-28T09:03:58.835Z,22.98
2022-11-28T09:06:26.096Z,20.50
2022-11-28T09:08:54.014Z,21.60
2022-11-28T09:11:23.278Z,22.35
2022-11-28T09:13:51.148Z,22.83
2022-11-28T09:16:19.762Z,20.88
2022-11-28T09:18:47.060Z,25.77
2022-11-28T09:21:15.665Z,23.55
2022-11-28T09:23:44.537Z,22.60
2022-11-28T09:26:16.769Z,24.73
2022-11-28T09:28:44.922Z,26.83
2022-11-28T09:31:13.817Z,26.63
2022-11-28T09:33:41.621Z,23.13
2022-11-28T09:36:21.892Z,24.67
2022-11-28T09:38:50.133Z,27.30
2022-11-28T09:41:45.737Z,26.83
2022-11-28T09:44:26.872Z,26.58
2022-11-28T09:47:03.702Z,32.03
2022-11-28T09:49:51.706Z,23.83
2022-11-28T09:52:48.177Z,25.08
2022-11-28T09:55:43.779Z,25.17
2022-11-28T09:58:42.911Z,25.70
2022-11-28T10:01:41.691Z,27.65
2022-11-28T10:04:39.185Z,26.27
2022-11-28T10:07:24.326Z,31.75
2022-11-28T10:11:00.754Z,26.55
2022-11-28T10:14:09.696Z,27.08
2022-11-28T10:17:02.680Z,26.42
2022-11-28T10:19:56.163Z,27.90
2022-11-28T10:25:24.344Z,28.85
2022-11-28T10:27:52.107Z,27.85
2022-11-28T10:30:24.746Z,31.95
2022-11-28T10:33:08.426Z,25.23
2022-11-28T10:35:52.061Z,29.30
2022-11-28T10:38:25.527Z,29.50
2022-11-28T10:41:18.411Z,28.48
2022-11-28T10:43:59.315Z,25.67
2022-11-28T10:47:00.549Z,28.45
2022-11-28T10:50:06.933Z,29.55
2022-11-28T10:52:46.549Z,30.00
2022-11-28T10:55:42.331Z,29.63
2022-11-28T10:58:30.097Z,31.48
2022-11-28T11:00:59.112Z,30.05
2022-11-28T11:03:32.078Z,24.50
2022-11-28T11:06:00.180Z,26.30
2022-11-28T11:08:33.821Z,24.38
2022-11-28T11:11:28.639Z,26.85
2022-11-28T11:14:04.955Z,25.75
2022-11-28T11:16:52.578Z,25.15
2022-11-28T11:19:25.097Z,24.90
2022-11-28T11:22:28.422Z,29.25
2022-11-28T11:25:17.383Z,30.90
2022-11-28T11:27:54.597Z,27.88
2022-11-28T11:30:42.696Z,28.85
2022-11-28T11:33:17.666Z,27.90
2022-11-28T11:35:48.882Z,31.65
2022-11-28T11:38:21.087Z,30.17
2022-11-28T11:40:50.607Z,31.97
2022-11-28T11:43:44.004Z,28.55
2022-11-28T11:46:14.591Z,29.58
2022-11-28T11:48:44.693Z,28.13
2022-11-28T11:51:35.089Z,25.80
2022-11-28T11:54:15.590Z,26.60
2022-11-28T11:56:46.985Z,24.10
2022-11-28T11:59:31.155Z,29.17
2022-11-28T12:02:21.460Z,26.13
2022-11-28T12:04:59.891Z,27.63
2022-11-28T12:07:40.283Z,24.63
2022-11-28T12:10:15.115Z,28.77
2022-11-28T12:12:42.433Z,23.27
2022-11-28T12:15:23.258Z,27.67
2022-11-28T12:18:21.074Z,27.90
2022-11-28T12:21:13.349Z,26.92
2022-11-28T12:24:08.410Z,31.58
2022-11-28T12:27:06.581Z,28.48
2022-11-28T12:29:39.412Z,30.70
2022-11-28T12:32:27.473Z,24.98
2022-11-28T12:35:29.531Z,27.15
2022-11-28T12:38:28.448Z,24.25
2022-11-28T12:41:32.666Z,25.70
2022-11-28T12:44:41.632Z,26.50
2022-11-28T12:47:23.941Z,26.50
2022-11-28T12:50:15.432Z,23.70
2022-11-28T12:53:22.227Z,22.90
2022-11-28T12:56:15.761Z,22.80
2022-11-28T13:01:55.993Z,28.55
2022-11-28T13:05:11.952Z,27.73
2022-11-28T13:08:19.401Z,29.25
2022-11-28T13:11:18.665Z,26.05
2022-11-28T13:13:53.393Z,24.45
2022-11-28T13:16:54.569Z,24.50
2022-11-28T13:19:31.884Z,24.20
2022-11-28T13:22:16.973Z,28.67
2022-11-28T13:25:19.204Z,27.17
2022-11-28T13:28:06.791Z,24.60
2022-11-28T13:30:55.749Z,28.65
2022-11-28T13:33:32.005Z,26.17
2022-11-28T13:36:01.253Z,27.52
2022-11-28T13:39:11.291Z,26.30
2022-11-28T13:42:36.177Z,23.35
2022-11-28T13:45:08.810Z,24.83
2022-11-28T13:50:25.588Z,23.75
2022-11-28T13:53:02.529Z,25.90
2022-11-28T13:56:04.961Z,27.92
2022-11-28T13:58:48.934Z,27.02
2022-11-28T14:01:20.124Z,27.27
2022-11-28T14:03:51.961Z,27.60
2022-11-28T14:06:26.233Z,26.73
2022-11-28T14:09:11.480Z,26.00
2022-11-28T14:12:11.586Z,28.05
2022-11-28T14:15:15.542Z,26.25
2022-11-28T14:17:54.693Z,24.77
2022-11-28T14:20:52.470Z,28.05
2022-11-28T14:23:43.889Z,33.92
2022-11-28T14:26:32.366Z,33.65
2022-11-28T14:29:01.265Z,29.65
2022-11-28T14:31:37.788Z,29.20
2022-11-28T14:34:30.824Z,35.45
2022-11-28T14:37:19.578Z,32.58
2022-11-28T14:39:51.707Z,29.83
2022-11-28T14:42:44.152Z,27.53
2022-11-28T14:45:41.225Z,30.67
2022-11-28T14:48:23.706Z,32.10
2022-11-28T14:50:59.389Z,30.43
2022-11-28T14:53:44.154Z,30.27
2022-11-28T14:56:26.386Z,29.90
2022-11-28T14:59:00.135Z,39.03
2022-11-28T15:01:52.083Z,31.38
2022-11-28T15:04:59.766Z,25.92
2022-11-28T15:08:11.389Z,32.85
2022-11-28T15:11:21.598Z,32.55
2022-11-28T15:14:05.728Z,30.77
2022-11-28T15:16:35.806Z,31.83
2022-11-28T15:19:34.486Z,28.88
2022-11-28T15:22:01.694Z,31.00
2022-11-28T15:24:36.481Z,30.40
2022-11-28T15:27:06.467Z,32.58
2022-11-28T15:29:35.634Z,36.85
2022-11-28T15:32:04.432Z,29.38
2022-11-28T15:34:35.509Z,38.05
2022-11-28T15:37:15.792Z,29.35
2022-11-28T15:39:47.451Z,30.48
2022-11-28T15:42:26.075Z,27.45
2022-11-28T15:44:59.665Z,28.50
2022-11-28T15:47:28.267Z,29.98
2022-11-28T15:50:09.733Z,31.65
2022-11-28T15:52:37.853Z,33.83
2022-11-28T15:55:16.785Z,29.75
2022-11-28T15:57:44.208Z,34.70
2022-11-28T16:00:19.587Z,32.53
2022-11-28T16:02:46.969Z,29.88
2022-11-28T16:05:23.043Z,32.28
2022-11-28T16:07:51.488Z,33.80
2022-11-28T16:10:38.090Z,31.65
2022-11-28T16:13:19.983Z,32.03
2022-11-28T16:15:50.579Z,37.17
2022-11-28T16:18:19.167Z,36.58
2022-11-28T16:20:47.365Z,38.22
2022-11-28T16:23:35.351Z,36.65
2022-11-28T16:26:17.724Z,33.88
2022-11-28T16:28:59.265Z,35.33
2022-11-28T16:31:28.080Z,37.28
2022-11-28T16:33:55.672Z,36.60
2022-11-28T16:36:33.756Z,35.53
2022-11-28T16:39:16.380Z,30.33
2022-11-28T16:41:54.739Z,38.72
2022-11-28T16:44:24.873Z,35.78
2022-11-28T16:46:57.664Z,33.47
2022-11-28T16:49:44.310Z,32.35
2022-11-28T16:52:27.347Z,32.40
2022-11-28T16:54:55.297Z,34.60
2022-11-28T16:57:27.526Z,35.17
2022-11-28T16:59:57.401Z,38.53
2022-11-28T17:02:26.804Z,31.50
2022-11-28T17:04:54.373Z,30.85
2022-11-28T17:07:24.113Z,31.73
2022-11-28T17:09:52.649Z,35.25
2022-11-28T17:12:39.203Z,33.38
2022-11-28T17:15:14.105Z,34.67
2022-11-28T17:17:41.458Z,35.35
2022-11-28T17:20:09.848Z,35.38
2022-11-28T17:22:43.848Z,37.72
2022-11-28T17:25:17.925Z,43.38
2022-11-28T17:27:46.352Z,47.35
2022-11-28T17:30:19.882Z,51.92
2022-11-28T17:32:47.984Z,49.45
2022-11-28T17:35:28.945Z,37.67
2022-11-28T17:37:56.125Z,40.72
2022-11-28T17:40:36.665Z,38.20
2022-11-28T17:43:04.607Z,39.88
2022-11-28T17:45:35.923Z,37.20
2022-11-28T17:48:03.333Z,38.10
2022-11-28T17:50:30.677Z,35.40
2022-11-28T17:52:57.871Z,38.72
2022-11-28T17:55:25.155Z,36.75
2022-11-28T17:57:53.712Z,35.72
2022-11-28T18:00:21.098Z,37.33
2022-11-28T18:02:48.277Z,38.00
2022-11-28T18:05:15.483Z,36.47
2022-11-28T18:07:42.776Z,36.78
2022-11-28T18:10:10.411Z,33.55
2022-11-28T18:12:38.423Z,35.08
2022-11-28T18:15:06.044Z,34.67
2022-11-28T18:17:33.219Z,36.10
2022-11-28T18:20:00.394Z,37.97
2022-11-28T18:22:27.596Z,39.88
2022-11-28T18:24:54.808Z,37.47
2022-11-28T18:27:21.974Z,39.10
2022-11-28T18:29:49.107Z,35.13
2022-11-28T18:32:16.257Z,39.72
2022-11-28T18:34:43.383Z,43.47
2022-11-28T18:37:10.713Z,39.92
2022-11-28T18:39:37.901Z,34.92
2022-11-28T18:42:08.612Z,42.38
2022-11-28T18:44:36.593Z,38.85
2022-11-28T18:47:03.763Z,41.83
2022-11-28T18:49:31.002Z,35.53
2022-11-28T18:51:58.120Z,37.30
2022-11-28T18:54:25.710Z,39.67
2022-11-28T18:56:52.941Z,39.33
2022-11-28T18:59:20.199Z,35.70
2022-11-28T19:01:47.416Z,36.80
2022-11-28T19:04:15.548Z,39.05
2022-11-28T19:06:44.751Z,41.55
2022-11-28T19:09:16.359Z,40.65
2022-11-28T19:11:44.795Z,39.33
2022-11-28T19:14:17.440Z,39.97
2022-11-28T19:16:46.847Z,38.13
2022-11-28T19:19:16.641Z,40.40
2022-11-28T19:21:43.816Z,39.03
2022-11-28T19:24:12.692Z,41.35
2022-11-28T19:26:40.016Z,37.65
2022-11-28T19:29:08.038Z,40.97
2022-11-28T19:31:37.587Z,39.17
2022-11-28T19:34:17.089Z,36.58
2022-11-28T19:36:48.430Z,39.10
2022-11-28T19:39:20.364Z,40.67
2022-11-28T19:41:47.987Z,38.50
2022-11-28T19:44:15.869Z,40.65
2022-11-28T19:46:44.153Z,38.15
2022-11-28T19:49:21.524Z,39.30
2022-11-28T19:51:50.573Z,40.45
2022-11-28T19:54:21.905Z,37.05
2022-11-28T19:56:50.450Z,37.78
2022-11-28T19:59:17.703Z,39.58
2022-11-28T20:01:48.099Z,40.05
2022-11-28T20:04:16.248Z,41.67
2022-11-28T20:06:43.461Z,37.80
2022-11-28T20:09:13.267Z,39.75
2022-11-28T20:11:43.606Z,38.55
2022-11-28T20:14:18.717Z,45.92
2022-11-28T20:16:46.941Z,39.95
2022-11-28T20:19:14.902Z,45.83
2022-11-28T20:21:42.172Z,41.53
2022-11-28T20:24:10.442Z,39.83
2022-11-28T20:26:41.865Z,44.17
2022-11-28T20:29:13.561Z,41.17
2022-11-28T20:31:47.034Z,43.35
2022-11-28T20:34:17.110Z,42.85
2022-11-28T20:36:45.723Z,48.67
2022-11-28T20:39:13.402Z,46.72
2022-11-28T20:41:40.623Z,43.10
2022-11-28T20:44:08.199Z,42.30
2022-11-28T20:46:35.609Z,43.03
2022-11-28T20:49:06.362Z,41.03
2022-11-28T20:51:35.341Z,40.78
2022-11-28T20:54:05.030Z,38.92
2022-11-28T20:56:57.898Z,41.55
2022-11-28T20:59:23.218Z,40.03
2022-11-28T21:01:51.029Z,41.35
2022-11-28T21:04:19.094Z,40.72
2022-11-28T21:06:49.024Z,42.53
2022-11-28T21:09:18.447Z,40.55
2022-11-28T21:12:02.627Z,37.97
2022-11-28T21:14:29.926Z,38.22
2022-11-28T21:16:58.424Z,36.33
2022-11-28T21:19:26.774Z,37.75
2022-11-28T21:21:54.233Z,38.03
2022-11-28T21:24:21.399Z,40.55
2022-11-28T21:26:53.553Z,40.47
2022-11-28T21:29:24.496Z,41.17
2022-11-28T21:31:52.932Z,39.03
2022-11-28T21:34:20.143Z,43.13
2022-11-28T21:36:47.449Z,42.70
2022-11-28T21:39:20.341Z,40.08
2022-11-28T21:44:15.226Z,37.85
2022-11-28T21:46:42.522Z,38.03
2022-11-28T21:49:09.767Z,41.70
2022-11-28T21:51:36.953Z,35.90
2022-11-28T21:54:04.304Z,38.10
2022-11-28T21:56:31.533Z,35.28
2022-11-28T21:58:58.768Z,41.63
2022-11-28T22:01:26.024Z,38.97
2022-11-28T22:03:54.403Z,34.95
2022-11-28T22:06:26.356Z,37.33
2022-11-28T22:08:53.960Z,38.55
2022-11-28T22:11:21.923Z,40.05
2022-11-28T22:13:50.610Z,37.47
2022-11-28T22:16:22.580Z,42.05
2022-11-28T22:18:52.595Z,39.90
2022-11-28T22:24:08.381Z,36.00
2022-11-28T22:26:36.151Z,37.50
2022-11-28T22:29:04.081Z,36.88
2022-11-28T22:31:31.461Z,34.42
2022-11-28T22:33:58.660Z,35.38
2022-11-28T22:36:26.005Z,37.50
2022-11-28T22:38:58.354Z,38.70
2022-11-28T22:41:29.233Z,39.05
2022-11-28T22:44:01.630Z,38.95
2022-11-28T22:46:29.380Z,34.38
2022-11-28T22:48:56.611Z,37.72
2022-11-28T22:51:26.164Z,37.38
2022-11-28T22:53:55.156Z,41.40
2022-11-28T22:56:22.729Z,40.33
2022-11-28T22:58:50.776Z,39.38
2022-11-28T23:01:25.211Z,40.45
2022-11-28T23:03:54.387Z,40.38
2022-11-28T23:06:25.546Z,37.47
2022-11-28T23:08:53.804Z,36.05
2022-11-28T23:11:25.580Z,41.55
2022-11-28T23:13:54.535Z,37.67
2022-11-28T23:16:26.284Z,33.78
2022-11-28T23:18:57.807Z,38.95
2022-11-28T23:21:26.457Z,34.55
2022-11-28T23:23:53.844Z,37.75
2022-11-28T23:26:25.259Z,39.22
2022-11-28T23:28:53.414Z,38.00
2022-11-28T23:31:29.141Z,37.47
2022-11-28T23:33:59.960Z,35.72
2022-11-28T23:36:43.109Z,36.40
2022-11-28T23:41:50.408Z,37.50
2022-11-28T23:44:19.971Z,36.92
2022-11-28T23:46:48.296Z,38.95
2022-11-28T23:49:15.563Z,38.05
2022-11-28T23:51:43.146Z,35.15
2022-11-28T23:54:11.736Z,36.97
2022-11-28T23:56:41.287Z,42.40
2022-11-28T23:59:10.901Z,40.83
